Time;durP1;ratioP1;P1;durP2;ratioP2;P2;SDS_P1;SDS_P2;PMS_P1;PMS_P2;Temp;Humidity;BMP_temperature;BMP_pressure;BME280_temperature;BME280_humidity;BME280_pressure;Samples;Min_cycle;Max_cycle;Signal;HPM_P1;HPM_P2
2022/11/17 00:01:14;;;;;;;1.70;1.33;;;10.90;98.20;;;;;;4971858;28;20543;-73
2022/11/17 00:03:42;;;;;;;1.60;1.10;;;10.90;98.20;;;;;;4982847;28;20525;-73
2022/11/17 00:06:10;;;;;;;1.60;1.00;;;11.00;98.20;;;;;;4965875;28;20972;-73
2022/11/17 00:08:36;;;;;;;1.60;1.20;;;10.90;98.20;;;;;;5002576;28;20469;-74
2022/11/17 00:11:04;;;;;;;1.60;1.20;;;11.00;98.20;;;;;;4982176;28;20492;-73
2022/11/17 00:16:18;;;;;;;1.60;1.10;;;11.00;98.20;;;;;;4992745;28;20533;-74
2022/11/17 00:21:31;;;;;;;1.60;1.23;;;11.00;98.20;;;;;;4985638;28;20487;-73
2022/11/17 00:23:58;;;;;;;1.60;1.10;;;11.00;98.20;;;;;;5000074;28;20840;-72
2022/11/17 00:26:27;;;;;;;1.60;1.10;;;11.00;98.20;;;;;;4984933;28;20472;-73
2022/11/17 00:28:55;;;;;;;1.60;1.10;;;11.00;98.20;;;;;;4998437;28;20469;-74
2022/11/17 00:34:13;;;;;;;1.60;1.00;;;11.10;98.20;;;;;;4998700;28;20448;-74
2022/11/17 00:36:43;;;;;;;1.60;1.10;;;11.10;98.20;;;;;;4987261;28;20887;-74
2022/11/17 00:39:11;;;;;;;1.60;1.20;;;11.10;98.20;;;;;;4999599;28;20461;-74
2022/11/17 00:41:38;;;;;;;1.60;1.07;;;11.10;98.20;;;;;;4986061;28;20500;-74
2022/11/17 00:44:05;;;;;;;1.60;1.10;;;11.10;98.20;;;;;;4989294;28;20469;-73
2022/11/17 00:46:32;;;;;;;4.20;3.90;;;11.10;98.20;;;;;;4985347;28;20956;-74
2022/11/17 00:48:59;;;;;;;1.60;1.23;;;11.10;98.20;;;;;;4982937;28;20462;-73
2022/11/17 00:51:28;;;;;;;1.60;1.10;;;11.10;98.20;;;;;;4970039;28;20546;-73
2022/11/17 00:53:55;;;;;;;1.60;1.10;;;11.10;98.20;;;;;;5008734;28;20806;-73
2022/11/17 00:56:22;;;;;;;1.60;1.10;;;11.10;98.20;;;;;;5001544;28;20486;-73
2022/11/17 00:58:48;;;;;;;1.60;1.10;;;11.10;98.20;;;;;;5013429;28;20463;-73
2022/11/17 01:01:15;;;;;;;1.60;1.07;;;11.10;98.20;;;;;;5016275;28;20505;-74
2022/11/17 01:03:42;;;;;;;1.60;1.10;;;11.00;98.20;;;;;;5020835;28;20846;-74
2022/11/17 01:06:12;;;;;;;1.60;1.07;;;11.00;98.20;;;;;;5000546;28;20492;-73
2022/11/17 01:08:41;;;;;;;1.60;1.10;;;11.00;98.20;;;;;;5021428;28;21005;-75
2022/11/17 01:11:09;;;;;;;1.60;1.10;;;11.00;98.20;;;;;;4999453;28;20555;-73
2022/11/17 01:13:37;;;;;;;1.60;1.20;;;11.00;98.20;;;;;;5017733;28;20832;-74
2022/11/17 01:16:07;;;;;;;1.60;1.10;;;11.00;98.20;;;;;;5017583;28;20463;-73
2022/11/17 01:18:34;;;;;;;1.60;1.13;;;10.90;98.20;;;;;;5022967;28;20577;-73
2022/11/17 01:21:09;;;;;;;1.80;1.50;;;10.90;98.20;;;;;;4998655;28;20480;-74
2022/11/17 01:23:37;;;;;;;1.60;1.20;;;10.90;98.20;;;;;;5018312;28;20460;-73
2022/11/17 01:26:08;;;;;;;1.60;1.10;;;10.90;98.20;;;;;;4997329;28;20850;-73
2022/11/17 01:28:36;;;;;;;1.60;1.10;;;10.90;98.20;;;;;;4986592;28;20453;-73
2022/11/17 01:31:05;;;;;;;1.60;1.10;;;10.90;98.20;;;;;;4984269;28;20599;-74
2022/11/17 01:33:33;;;;;;;1.60;1.10;;;10.90;98.20;;;;;;4992915;28;20462;-73
2022/11/17 01:36:02;;;;;;;1.60;1.10;;;10.80;98.20;;;;;;4963109;28;20462;-74
2022/11/17 01:38:29;;;;;;;1.60;1.10;;;10.90;98.20;;;;;;5008091;28;20474;-74
2022/11/17 01:40:58;;;;;;;1.60;1.30;;;10.90;98.20;;;;;;4997584;28;20487;-74
2022/11/17 01:43:43;;;;;;;1.60;1.10;;;10.90;98.20;;;;;;4988303;28;20472;-74
2022/11/17 01:46:27;;;;;;;1.60;1.20;;;10.80;98.20;;;;;;4982744;28;21011;-73
2022/11/17 01:48:58;;;;;;;1.60;1.20;;;10.80;98.20;;;;;;5007010;28;20461;-74
2022/11/17 01:51:26;;;;;;;1.60;1.10;;;10.90;98.20;;;;;;4979028;28;20496;-73
2022/11/17 01:53:53;;;;;;;1.60;1.10;;;10.90;98.20;;;;;;5005492;28;20472;-73
2022/11/17 01:56:26;;;;;;;1.87;1.57;;;10.90;98.20;;;;;;5001719;28;20885;-73
2022/11/17 01:58:58;;;;;;;1.60;1.20;;;10.90;98.20;;;;;;5001259;28;20457;-73
2022/11/17 02:01:25;;;;;;;1.60;1.10;;;10.90;98.20;;;;;;4986450;28;20652;-73
2022/11/17 02:03:52;;;;;;;1.60;1.10;;;10.90;98.20;;;;;;5007401;28;20468;-73
2022/11/17 02:06:25;;;;;;;1.60;1.10;;;10.90;98.20;;;;;;5001611;28;20475;-73
2022/11/17 02:08:53;;;;;;;1.60;1.10;;;10.90;98.20;;;;;;5018534;28;20495;-73
2022/11/17 02:11:22;;;;;;;1.60;1.00;;;10.90;98.20;;;;;;5001789;28;20482;-73
2022/11/17 02:13:51;;;;;;;1.60;1.10;;;11.00;98.20;;;;;;5019104;28;20471;-73
2022/11/17 02:16:20;;;;;;;1.60;1.10;;;11.00;98.20;;;;;;4994749;28;20484;-73
2022/11/17 02:18:48;;;;;;;1.60;1.00;;;11.00;98.20;;;;;;5004962;28;20460;-74
2022/11/17 02:21:55;;;;;;;1.60;1.10;;;11.00;98.20;;;;;;4992099;28;21018;-74
2022/11/17 02:25:06;;;;;;;1.60;1.20;;;11.00;98.20;;;;;;4988560;28;20575;-75
2022/11/17 02:27:55;;;;;;;3.20;2.90;;;11.00;98.20;;;;;;4916733;28;20590;-75
2022/11/17 02:30:23;;;;;;;1.60;1.10;;;11.00;98.20;;;;;;4988944;28;20829;-75
2022/11/17 02:33:01;;;;;;;1.60;1.10;;;11.00;98.20;;;;;;5009356;28;20479;-75
2022/11/17 02:35:36;;;;;;;1.60;1.10;;;11.00;98.20;;;;;;5029088;28;20467;-75
2022/11/17 02:38:13;;;;;;;1.60;1.10;;;11.00;98.20;;;;;;5001668;28;20483;-74
2022/11/17 02:40:44;;;;;;;1.60;1.10;;;11.00;98.20;;;;;;5009115;28;20741;-74
2022/11/17 02:46:08;;;;;;;1.60;1.20;;;11.00;98.20;;;;;;4987109;28;20460;-74
2022/11/17 02:48:38;;;;;;;1.60;1.10;;;11.00;98.20;;;;;;5013999;28;20490;-74
2022/11/17 02:51:09;;;;;;;1.60;1.10;;;11.00;98.20;;;;;;4999398;28;20483;-73
2022/11/17 02:53:37;;;;;;;1.60;1.10;;;11.00;98.20;;;;;;5014960;28;20460;-74
2022/11/17 02:56:07;;;;;;;1.70;1.30;;;11.00;98.20;;;;;;4987910;28;20505;-72
2022/11/17 02:58:36;;;;;;;1.70;1.30;;;11.00;98.20;;;;;;5013392;28;20463;-73
2022/11/17 03:01:19;;;;;;;1.60;1.10;;;11.00;98.20;;;;;;4999413;28;20491;-73
2022/11/17 03:04:02;;;;;;;1.60;1.20;;;11.00;98.20;;;;;;5010945;28;20506;-74
2022/11/17 03:06:40;;;;;;;1.60;1.10;;;11.00;98.20;;;;;;5005365;28;20765;-73
2022/11/17 03:09:15;;;;;;;1.60;1.10;;;11.00;98.20;;;;;;5018761;28;20953;-73
2022/11/17 03:11:48;;;;;;;1.60;1.10;;;10.90;98.20;;;;;;5008096;28;20474;-73
2022/11/17 03:14:23;;;;;;;1.60;1.10;;;11.00;98.20;;;;;;5018932;28;20483;-73
2022/11/17 03:16:56;;;;;;;1.60;1.10;;;11.00;98.20;;;;;;5009775;28;20490;-73
2022/11/17 03:19:32;;;;;;;1.60;1.10;;;11.00;98.20;;;;;;5018608;28;20522;-73
2022/11/17 03:22:07;;;;;;;1.60;1.10;;;11.00;98.20;;;;;;5008829;28;20479;-73
2022/11/17 03:24:39;;;;;;;1.60;1.10;;;11.00;98.20;;;;;;5015819;28;20460;-73
2022/11/17 03:27:11;;;;;;;1.60;1.20;;;11.00;98.20;;;;;;5007450;28;20487;-72
2022/11/17 03:29:44;;;;;;;1.60;1.10;;;11.00;98.20;;;;;;5007022;28;20495;-75
2022/11/17 03:32:13;;;;;;;1.60;1.17;;;11.00;98.20;;;;;;4998226;28;20484;-73
2022/11/17 03:34:45;;;;;;;1.60;1.17;;;11.00;98.20;;;;;;4981888;28;20836;-74
2022/11/17 03:37:15;;;;;;;1.60;1.20;;;11.00;98.20;;;;;;4982866;28;20480;-74
2022/11/17 03:39:46;;;;;;;1.60;1.10;;;11.00;98.20;;;;;;4997182;28;20492;-75
2022/11/17 03:42:18;;;;;;;1.60;1.10;;;11.10;98.20;;;;;;4992914;28;20488;-75
2022/11/17 03:44:50;;;;;;;1.60;1.20;;;11.10;98.20;;;;;;4995628;28;20461;-75
2022/11/17 03:47:20;;;;;;;1.60;1.10;;;11.10;98.20;;;;;;4991369;28;20490;-75
2022/11/17 03:49:54;;;;;;;1.60;1.10;;;11.10;98.20;;;;;;5011970;28;20474;-73
2022/11/17 03:52:23;;;;;;;1.60;1.10;;;11.10;98.20;;;;;;4998395;28;21008;-75
2022/11/17 03:54:51;;;;;;;1.60;1.10;;;11.10;98.20;;;;;;5011312;28;20483;-74
2022/11/17 03:57:26;;;;;;;1.60;1.20;;;11.10;98.20;;;;;;4987683;28;20488;-74
2022/11/17 04:00:00;;;;;;;1.60;1.10;;;11.10;98.20;;;;;;4991416;28;20471;-74
2022/11/17 04:02:27;;;;;;;1.60;1.10;;;11.20;98.20;;;;;;4985258;28;20485;-74
2022/11/17 04:05:06;;;;;;;1.60;1.20;;;11.10;98.20;;;;;;4992083;28;20879;-76
2022/11/17 04:07:33;;;;;;;1.60;1.13;;;11.20;98.20;;;;;;4998982;28;20577;-75
2022/11/17 04:10:00;;;;;;;1.60;1.10;;;11.10;98.20;;;;;;4994999;28;20465;-75
2022/11/17 04:17:57;;;;;;;1.60;1.10;;;11.10;98.20;;;;;;5006940;28;20482;-75
2022/11/17 04:20:24;;;;;;;1.60;1.20;;;11.10;98.20;;;;;;4999016;28;20465;-75
2022/11/17 04:31:00;;;;;;;1.60;1.23;;;11.10;98.20;;;;;;5000573;28;20474;-75
2022/11/17 04:33:26;;;;;;;1.60;1.03;;;11.10;98.20;;;;;;5004044;28;20481;-75
2022/11/17 04:35:54;;;;;;;1.60;1.10;;;11.10;98.20;;;;;;5001414;28;20460;-74
2022/11/17 04:38:20;;;;;;;1.60;1.10;;;11.10;98.20;;;;;;4987116;28;20476;-73
2022/11/17 04:43:28;;;;;;;1.60;1.10;;;11.10;98.20;;;;;;4943536;28;20473;-76
2022/11/17 04:45:59;;;;;;;1.60;1.10;;;11.10;98.20;;;;;;4965165;28;20468;-73
2022/11/17 04:48:27;;;;;;;1.60;1.17;;;11.00;98.20;;;;;;5007592;28;20460;-74
2022/11/17 04:50:53;;;;;;;1.60;1.10;;;11.00;98.20;;;;;;4982239;28;20477;-74
2022/11/17 04:53:20;;;;;;;1.60;1.10;;;11.00;98.20;;;;;;5004387;28;20489;-73
2022/11/17 04:55:47;;;;;;;1.60;1.10;;;11.00;98.20;;;;;;4994454;28;20464;-74
2022/11/17 04:58:14;;;;;;;1.60;1.10;;;11.00;98.20;;;;;;4980807;28;20481;-73
2022/11/17 05:00:41;;;;;;;1.60;1.10;;;11.00;98.20;;;;;;4988418;28;20492;-73
2022/11/17 05:03:09;;;;;;;1.60;1.10;;;11.00;98.20;;;;;;5013420;28;21011;-73
2022/11/17 05:05:35;;;;;;;1.60;1.10;;;11.10;98.20;;;;;;5009797;28;20464;-74
2022/11/17 05:08:02;;;;;;;1.60;1.10;;;11.10;98.20;;;;;;4999000;28;20510;-74
2022/11/17 05:13:24;;;;;;;1.60;1.10;;;11.10;98.20;;;;;;5007477;28;20886;-76
2022/11/17 05:18:37;;;;;;;1.60;1.10;;;11.20;98.20;;;;;;4958524;28;20456;-73
2022/11/17 05:21:04;;;;;;;1.60;1.13;;;11.20;98.20;;;;;;4980334;28;20480;-75
2022/11/17 05:26:16;;;;;;;1.60;1.10;;;11.20;98.20;;;;;;4967228;28;20498;-74
2022/11/17 05:28:43;;;;;;;1.60;1.03;;;11.20;98.20;;;;;;4992046;28;20459;-74
2022/11/17 05:31:10;;;;;;;1.60;1.00;;;11.20;98.20;;;;;;4962965;28;20484;-75
2022/11/17 05:33:39;;;;;;;1.60;1.10;;;11.20;98.20;;;;;;4998933;28;20489;-74
2022/11/17 05:36:06;;;;;;;1.60;1.10;;;11.20;98.20;;;;;;4985253;28;20464;-73
2022/11/17 05:38:33;;;;;;;1.60;1.20;;;11.20;98.20;;;;;;5002008;28;20483;-74
2022/11/17 05:41:00;;;;;;;1.60;1.00;;;11.20;98.20;;;;;;4977949;28;20492;-74
2022/11/17 05:43:27;;;;;;;1.60;1.10;;;11.20;98.20;;;;;;5012524;28;20516;-75
2022/11/17 05:45:54;;;;;;;1.60;1.07;;;11.20;98.20;;;;;;4986986;28;20554;-73
2022/11/17 05:48:21;;;;;;;1.60;1.10;;;11.20;98.20;;;;;;5013533;28;20467;-72
2022/11/17 05:50:52;;;;;;;1.60;1.10;;;11.20;98.20;;;;;;5003148;28;20480;-74
2022/11/17 05:53:19;;;;;;;1.60;1.10;;;11.20;98.20;;;;;;5012815;28;20553;-73
2022/11/17 05:55:45;;;;;;;1.60;1.00;;;11.20;98.20;;;;;;4996997;28;20571;-72
2022/11/17 05:58:17;;;;;;;1.60;1.10;;;11.20;98.20;;;;;;4969839;28;20497;-72
2022/11/17 06:00:44;;;;;;;1.60;1.10;;;11.20;98.20;;;;;;5009147;28;20620;-71
2022/11/17 06:03:15;;;;;;;1.60;1.10;;;11.20;98.20;;;;;;4992792;28;20585;-74
2022/11/17 06:05:42;;;;;;;1.60;1.10;;;11.20;98.20;;;;;;5002102;28;20463;-74
2022/11/17 06:08:11;;;;;;;1.60;1.10;;;11.20;98.20;;;;;;4977246;28;20511;-74
2022/11/17 06:10:38;;;;;;;1.60;1.10;;;11.20;98.20;;;;;;4987630;28;20476;-73
2022/11/17 06:13:04;;;;;;;1.60;1.10;;;11.20;98.20;;;;;;5005220;28;20582;-73
2022/11/17 06:15:32;;;;;;;1.60;1.10;;;11.20;98.20;;;;;;4994484;28;20864;-73
2022/11/17 06:18:03;;;;;;;1.60;1.20;;;11.20;98.20;;;;;;5011366;28;20558;-73
2022/11/17 06:20:34;;;;;;;1.60;1.10;;;11.20;98.20;;;;;;5007323;28;20503;-73
2022/11/17 06:23:04;;;;;;;1.60;1.10;;;11.20;98.20;;;;;;5016874;28;20467;-73
2022/11/17 06:25:33;;;;;;;1.60;1.10;;;11.20;98.20;;;;;;5005347;28;21367;-73
2022/11/17 06:28:04;;;;;;;1.60;1.10;;;11.20;98.20;;;;;;4983312;28;20478;-72
2022/11/17 06:30:31;;;;;;;1.60;1.10;;;11.20;98.20;;;;;;4996672;28;20491;-72
2022/11/17 06:32:59;;;;;;;1.60;1.07;;;11.20;98.20;;;;;;5001461;28;20482;-72
2022/11/17 06:35:32;;;;;;;1.60;1.10;;;11.20;98.20;;;;;;4998060;28;20685;-73
2022/11/17 06:37:58;;;;;;;1.60;1.00;;;11.20;98.20;;;;;;4996304;28;20541;-72
2022/11/17 06:40:35;;;;;;;1.60;1.10;;;11.20;98.20;;;;;;4991504;28;20471;-72
2022/11/17 06:43:07;;;;;;;1.60;1.00;;;11.20;98.20;;;;;;4974243;28;20496;-73
2022/11/17 06:45:34;;;;;;;1.60;1.00;;;11.20;98.20;;;;;;4974228;28;20475;-72
2022/11/17 06:48:00;;;;;;;1.60;1.10;;;11.20;98.20;;;;;;4985048;28;20563;-72
2022/11/17 06:50:27;;;;;;;1.60;1.10;;;11.20;98.20;;;;;;4980086;28;20487;-73
2022/11/17 06:52:57;;;;;;;1.57;1.00;;;11.20;98.20;;;;;;4998074;28;20491;-72
2022/11/17 06:55:24;;;;;;;1.60;1.10;;;11.20;98.20;;;;;;4991364;28;20468;-73
2022/11/17 06:57:51;;;;;;;1.60;1.10;;;11.20;98.20;;;;;;4972677;28;20501;-73
2022/11/17 07:00:20;;;;;;;1.60;1.10;;;11.20;98.20;;;;;;4993771;28;20461;-73
2022/11/17 07:02:46;;;;;;;1.60;1.10;;;11.20;98.20;;;;;;4999280;28;20496;-73
2022/11/17 07:05:13;;;;;;;1.60;1.10;;;11.20;98.20;;;;;;4992310;28;21279;-73
2022/11/17 07:07:40;;;;;;;1.60;1.10;;;11.20;98.20;;;;;;5000635;28;20488;-76
2022/11/17 07:10:08;;;;;;;1.77;1.47;;;11.30;98.20;;;;;;4992710;28;20950;-74
2022/11/17 07:12:35;;;;;;;1.60;1.10;;;11.30;98.20;;;;;;4998503;28;20484;-74
2022/11/17 07:15:02;;;;;;;1.60;1.00;;;11.30;98.20;;;;;;4992871;28;20465;-73
2022/11/17 07:17:30;;;;;;;1.60;1.10;;;11.30;98.20;;;;;;5006693;28;20487;-74
2022/11/17 07:19:57;;;;;;;1.60;1.10;;;11.40;98.20;;;;;;5003228;28;20456;-74
2022/11/17 07:22:31;;;;;;;1.60;1.03;;;11.40;98.20;;;;;;5008086;28;20506;-74
2022/11/17 07:24:58;;;;;;;1.60;1.10;;;11.40;98.20;;;;;;4997183;28;20464;-73
2022/11/17 07:27:24;;;;;;;1.60;1.10;;;11.50;98.20;;;;;;4985306;28;20913;-72
2022/11/17 07:29:51;;;;;;;1.60;1.00;;;11.50;98.20;;;;;;4993956;28;20894;-72
2022/11/17 07:32:18;;;;;;;1.60;1.10;;;11.50;98.20;;;;;;4974606;28;20544;-72
2022/11/17 07:34:46;;;;;;;1.60;1.10;;;11.50;98.20;;;;;;4988300;28;20491;-72
2022/11/17 07:37:13;;;;;;;1.60;1.20;;;11.50;98.20;;;;;;4992043;28;20480;-72
2022/11/17 07:39:40;;;;;;;1.60;1.10;;;11.50;98.20;;;;;;5011639;28;20459;-72
2022/11/17 07:42:10;;;;;;;1.60;1.10;;;11.50;98.20;;;;;;4994767;28;20487;-72
2022/11/17 07:44:37;;;;;;;1.60;1.10;;;11.50;98.20;;;;;;5007599;28;20460;-72
2022/11/17 07:47:04;;;;;;;1.60;1.10;;;11.50;98.20;;;;;;5005069;28;20592;-72
2022/11/17 07:49:30;;;;;;;1.60;1.00;;;11.50;98.20;;;;;;5009764;28;20464;-73
2022/11/17 07:51:58;;;;;;;1.60;1.10;;;11.40;98.20;;;;;;5005965;28;20491;-72
2022/11/17 07:54:25;;;;;;;1.60;1.10;;;11.40;98.20;;;;;;5013526;28;20569;-72
2022/11/17 07:56:52;;;;;;;1.60;1.10;;;11.40;98.20;;;;;;4986338;28;20497;-72
2022/11/17 07:59:20;;;;;;;1.60;1.10;;;11.40;98.20;;;;;;4977786;28;20470;-72
2022/11/17 08:01:47;;;;;;;1.60;1.10;;;11.40;98.20;;;;;;4972630;28;20552;-71
2022/11/17 08:04:14;;;;;;;1.60;1.10;;;11.40;98.20;;;;;;4987641;28;20855;-72
2022/11/17 08:06:41;;;;;;;1.60;1.10;;;11.40;98.20;;;;;;4982638;28;20598;-72
2022/11/17 08:09:12;;;;;;;1.60;1.00;;;11.40;98.20;;;;;;5003813;28;20978;-71
2022/11/17 08:11:39;;;;;;;1.60;1.10;;;11.50;98.20;;;;;;4986504;28;20611;-72
2022/11/17 08:14:06;;;;;;;1.60;1.00;;;11.50;98.20;;;;;;4998965;28;20674;-71
2022/11/17 08:16:32;;;;;;;1.60;1.10;;;11.50;98.20;;;;;;4988209;28;20488;-71
2022/11/17 08:18:59;;;;;;;1.60;1.10;;;11.50;98.20;;;;;;5000782;28;20465;-72
2022/11/17 08:21:26;;;;;;;1.60;1.00;;;11.50;98.20;;;;;;4985096;28;20484;-71
2022/11/17 08:23:54;;;;;;;1.60;1.10;;;11.50;98.20;;;;;;5000310;28;20465;-72
2022/11/17 08:26:24;;;;;;;1.60;1.10;;;11.50;98.20;;;;;;4984220;28;20524;-72
2022/11/17 08:28:51;;;;;;;1.57;1.00;;;11.50;98.20;;;;;;4988264;28;20489;-72
2022/11/17 08:31:17;;;;;;;1.60;1.00;;;11.60;98.20;;;;;;4984668;28;20502;-72
2022/11/17 08:33:44;;;;;;;1.60;1.10;;;11.60;98.20;;;;;;5006727;28;20487;-71
2022/11/17 08:36:11;;;;;;;1.60;1.00;;;11.60;98.20;;;;;;4999922;28;20860;-71
2022/11/17 08:38:37;;;;;;;1.60;1.10;;;11.60;98.20;;;;;;5007848;28;20959;-72
2022/11/17 08:41:07;;;;;;;1.60;1.10;;;11.60;98.20;;;;;;4991181;28;20808;-72
2022/11/17 08:43:38;;;;;;;1.60;1.10;;;11.60;98.20;;;;;;4997608;28;20463;-70
2022/11/17 08:46:05;;;;;;;1.60;1.10;;;11.60;98.20;;;;;;4977001;28;20480;-72
2022/11/17 08:48:32;;;;;;;1.60;1.03;;;11.60;98.20;;;;;;5000284;28;20465;-72
2022/11/17 08:51:03;;;;;;;1.60;1.00;;;11.60;98.20;;;;;;4978931;28;21097;-72
2022/11/17 08:53:30;;;;;;;1.60;1.03;;;11.70;98.20;;;;;;5001210;28;20496;-71
2022/11/17 08:55:57;;;;;;;1.60;1.00;;;11.70;98.20;;;;;;4977648;28;20901;-71
2022/11/17 08:58:24;;;;;;;1.60;1.00;;;11.70;98.20;;;;;;4995154;28;20461;-72
2022/11/17 09:00:52;;;;;;;1.60;1.10;;;11.80;98.20;;;;;;4964586;28;20489;-72
2022/11/17 09:03:19;;;;;;;1.60;1.00;;;11.80;98.20;;;;;;4992826;28;20528;-72
2022/11/17 09:05:47;;;;;;;1.60;1.10;;;11.80;98.20;;;;;;4979857;28;20462;-71
2022/11/17 09:08:14;;;;;;;1.60;1.00;;;11.90;98.20;;;;;;5001729;28;20503;-71
2022/11/17 09:10:41;;;;;;;1.60;1.03;;;11.90;98.20;;;;;;4994516;28;20488;-72
2022/11/17 09:13:08;;;;;;;1.60;1.10;;;11.90;98.20;;;;;;5008423;28;20491;-71
2022/11/17 09:15:35;;;;;;;1.60;1.10;;;11.90;98.20;;;;;;5013363;28;20968;-71
2022/11/17 09:18:03;;;;;;;1.60;1.00;;;11.90;98.20;;;;;;4997683;28;20480;-74
2022/11/17 09:20:30;;;;;;;1.60;1.13;;;12.00;98.20;;;;;;5008646;28;20492;-74
2022/11/17 09:23:01;;;;;;;1.60;1.10;;;12.00;98.20;;;;;;5026178;28;21019;-72
2022/11/17 09:25:28;;;;;;;1.60;1.00;;;12.10;98.20;;;;;;5017628;28;20542;-72
2022/11/17 09:27:54;;;;;;;1.60;1.10;;;12.10;98.20;;;;;;4988516;28;20503;-72
2022/11/17 09:30:22;;;;;;;1.60;1.10;;;12.10;98.20;;;;;;4989789;28;20453;-72
2022/11/17 09:32:48;;;;;;;1.60;1.00;;;12.20;98.20;;;;;;4983207;28;20504;-72
2022/11/17 09:35:18;;;;;;;1.60;1.00;;;12.20;98.20;;;;;;4989810;28;20492;-72
2022/11/17 09:37:45;;;;;;;1.60;1.10;;;12.20;98.20;;;;;;4991621;28;20484;-71
2022/11/17 09:40:16;;;;;;;1.60;1.10;;;12.30;98.20;;;;;;4990841;28;20496;-72
2022/11/17 09:42:43;;;;;;;1.60;1.00;;;12.40;98.20;;;;;;4972836;28;20494;-72
2022/11/17 09:45:16;;;;;;;1.60;1.10;;;12.40;98.20;;;;;;4989247;28;20468;-72
2022/11/17 09:47:48;;;;;;;1.57;1.00;;;12.40;98.20;;;;;;4977238;28;20485;-72
2022/11/17 09:50:21;;;;;;;1.60;1.10;;;12.50;98.20;;;;;;5001225;28;20982;-72
2022/11/17 09:52:56;;;;;;;1.60;1.10;;;12.50;98.20;;;;;;4992554;28;20583;-72
2022/11/17 09:55:29;;;;;;;1.60;1.00;;;12.50;98.20;;;;;;4987501;28;20480;-72
2022/11/17 09:58:05;;;;;;;1.60;1.10;;;12.50;98.20;;;;;;4998397;28;20563;-71
2022/11/17 10:00:33;;;;;;;1.60;1.00;;;12.50;98.20;;;;;;4989674;28;21143;-72
2022/11/17 10:03:01;;;;;;;1.60;1.20;;;12.60;98.20;;;;;;4984855;28;21008;-71
2022/11/17 10:05:32;;;;;;;1.60;1.00;;;12.60;98.20;;;;;;5004817;28;20456;-72
2022/11/17 10:08:03;;;;;;;1.57;1.00;;;12.60;98.20;;;;;;5000485;28;20562;-72
2022/11/17 10:10:39;;;;;;;1.60;1.00;;;12.60;98.20;;;;;;5008409;28;20575;-71
2022/11/17 10:13:14;;;;;;;1.60;1.10;;;12.60;98.20;;;;;;4996979;28;20951;-71
2022/11/17 10:15:47;;;;;;;1.60;1.10;;;12.60;98.20;;;;;;5001476;28;21024;-72
2022/11/17 10:18:15;;;;;;;1.57;1.00;;;12.60;98.20;;;;;;4961586;28;20487;-71
2022/11/17 10:20:45;;;;;;;1.60;1.03;;;12.60;98.20;;;;;;5001439;28;20865;-71
2022/11/17 10:23:22;;;;;;;1.57;1.00;;;12.70;98.20;;;;;;5003666;28;20540;-72
2022/11/17 10:25:57;;;;;;;1.57;1.10;;;12.70;98.20;;;;;;5002761;28;20905;-72
2022/11/17 10:28:26;;;;;;;1.60;1.00;;;12.70;98.20;;;;;;5009106;28;20472;-72
2022/11/17 10:30:56;;;;;;;1.57;1.00;;;12.80;98.20;;;;;;5007137;28;20494;-71
2022/11/17 10:33:35;;;;;;;1.53;1.00;;;12.70;98.20;;;;;;5006044;28;20488;-72
2022/11/17 10:36:05;;;;;;;1.57;1.10;;;12.70;98.20;;;;;;4996322;28;20471;-72
2022/11/17 10:38:33;;;;;;;1.57;1.00;;;12.70;98.20;;;;;;5007746;28;20468;-72
2022/11/17 10:41:02;;;;;;;1.53;1.00;;;12.70;98.20;;;;;;4997053;28;20484;-72
2022/11/17 10:43:33;;;;;;;1.60;1.00;;;12.70;98.20;;;;;;5024733;28;20463;-71
2022/11/17 10:46:04;;;;;;;1.60;1.00;;;12.70;98.20;;;;;;4999189;28;20547;-72
2022/11/17 10:48:32;;;;;;;1.57;1.00;;;12.70;98.20;;;;;;5009240;28;20475;-72
2022/11/17 10:51:01;;;;;;;1.53;1.00;;;12.70;98.20;;;;;;4995348;28;20495;-72
2022/11/17 10:53:36;;;;;;;1.57;1.00;;;12.70;98.20;;;;;;5024610;28;20463;-71
2022/11/17 10:56:07;;;;;;;1.60;1.00;;;12.70;98.20;;;;;;5012230;28;20487;-72
2022/11/17 10:58:55;;;;;;;1.57;1.00;;;12.70;98.20;;;;;;4999023;28;20514;-72
2022/11/17 11:01:28;;;;;;;1.60;1.00;;;12.70;98.20;;;;;;4995329;28;20482;-72
2022/11/17 11:03:56;;;;;;;1.53;1.00;;;12.70;98.20;;;;;;5005344;28;20538;-72
2022/11/17 11:06:25;;;;;;;1.57;1.00;;;12.70;98.20;;;;;;4999362;28;20483;-72
2022/11/17 11:08:57;;;;;;;1.50;1.00;;;12.70;98.20;;;;;;5016521;28;20456;-71
2022/11/17 11:11:48;;;;;;;1.53;1.00;;;12.80;98.20;;;;;;5002233;28;20486;-72
2022/11/17 11:14:24;;;;;;;1.57;1.00;;;12.80;98.20;;;;;;4996037;28;20492;-72
2022/11/17 11:16:51;;;;;;;1.60;1.10;;;12.80;98.20;;;;;;4995899;28;20498;-72
2022/11/17 11:19:20;;;;;;;1.60;1.00;;;12.80;98.20;;;;;;5013021;28;20474;-72
2022/11/17 11:22:12;;;;;;;1.53;1.00;;;12.90;98.20;;;;;;5005391;28;20492;-74
2022/11/17 11:24:45;;;;;;;1.53;1.00;;;12.90;98.20;;;;;;5008521;28;20460;-71
2022/11/17 11:27:28;;;;;;;1.60;1.00;;;12.90;98.20;;;;;;4999347;28;20479;-72
2022/11/17 11:30:01;;;;;;;1.60;1.00;;;12.90;98.20;;;;;;4994769;28;20876;-71
2022/11/17 11:32:39;;;;;;;1.57;1.00;;;12.90;98.20;;;;;;4994342;28;20494;-71
2022/11/17 11:35:39;;;;;;;1.53;1.00;;;13.00;98.20;;;;;;4992359;28;20480;-74
2022/11/17 11:38:22;;;;;;;1.53;1.00;;;12.90;98.20;;;;;;4999311;28;20488;-71
2022/11/17 11:41:04;;;;;;;1.57;1.00;;;12.90;98.20;;;;;;4984493;28;20481;-72
2022/11/17 11:43:39;;;;;;;1.57;1.00;;;13.00;98.20;;;;;;5013364;28;21019;-72
2022/11/17 11:46:13;;;;;;;1.57;1.00;;;13.00;98.20;;;;;;4980795;28;20468;-71
2022/11/17 11:48:41;;;;;;;1.60;1.10;;;13.00;98.20;;;;;;4980212;28;20457;-74
2022/11/17 11:51:13;;;;;;;1.57;1.00;;;13.00;98.20;;;;;;4986180;28;20907;-72
2022/11/17 11:53:48;;;;;;;1.60;1.00;;;13.00;98.20;;;;;;5012509;28;20471;-72
2022/11/17 11:56:19;;;;;;;1.53;1.00;;;13.10;98.20;;;;;;4985485;28;20954;-72
2022/11/17 11:59:00;;;;;;;1.60;1.00;;;13.10;98.20;;;;;;4995459;28;20469;-72
2022/11/17 12:01:31;;;;;;;1.53;1.00;;;13.00;98.20;;;;;;4987861;28;20495;-72
2022/11/17 12:04:12;;;;;;;1.53;1.00;;;13.00;98.20;;;;;;5001487;28;20495;-72
2022/11/17 12:06:43;;;;;;;1.57;1.03;;;13.10;98.20;;;;;;4993227;28;20476;-71
2022/11/17 12:09:28;;;;;;;1.57;1.00;;;13.10;98.20;;;;;;5022605;28;20464;-72
2022/11/17 12:12:01;;;;;;;1.53;1.00;;;13.10;98.20;;;;;;4993386;28;20488;-72
2022/11/17 12:14:29;;;;;;;1.60;1.00;;;13.10;98.20;;;;;;4978383;28;20620;-71
2022/11/17 12:17:22;;;;;;;1.60;1.00;;;13.10;98.20;;;;;;4977515;28;20661;-71
2022/11/17 12:19:55;;;;;;;1.60;1.00;;;13.10;98.20;;;;;;4989962;28;20469;-71
2022/11/17 12:23:01;;;;;;;1.57;1.00;;;13.10;98.20;;;;;;4994237;28;20492;-72
2022/11/17 12:25:31;;;;;;;1.53;1.00;;;13.10;98.20;;;;;;4987480;28;20500;-72
2022/11/17 12:28:26;;;;;;;1.57;1.00;;;13.10;98.20;;;;;;4974466;28;20567;-72
2022/11/17 12:30:56;;;;;;;1.50;1.00;;;13.20;98.20;;;;;;4980974;28;21035;-71
2022/11/17 12:34:10;;;;;;;1.60;1.00;;;13.10;98.20;;;;;;5009559;28;20843;-72
2022/11/17 12:36:37;;;;;;;1.53;1.00;;;13.20;98.20;;;;;;4940737;28;20492;-72
2022/11/17 12:39:05;;;;;;;1.60;1.00;;;13.20;98.20;;;;;;4989230;28;20460;-72
2022/11/17 12:42:06;;;;;;;1.50;1.00;;;13.20;98.20;;;;;;4993924;28;20567;-72
2022/11/17 12:45:06;;;;;;;1.57;1.00;;;13.20;98.20;;;;;;4996921;28;20908;-72
2022/11/17 12:47:37;;;;;;;1.50;1.00;;;13.30;98.20;;;;;;4996595;28;20574;-71
2022/11/17 12:50:41;;;;;;;1.57;1.00;;;13.30;98.20;;;;;;4992772;28;20464;-71
2022/11/17 12:53:26;;;;;;;1.57;1.00;;;13.30;98.20;;;;;;5002088;28;20479;-71
2022/11/17 12:56:19;;;;;;;1.60;1.10;;;13.30;98.20;;;;;;4973517;28;20973;-71
2022/11/17 12:58:58;;;;;;;1.60;1.10;;;13.30;98.20;;;;;;4981560;28;20560;-71
2022/11/17 13:01:37;;;;;;;1.57;1.00;;;13.20;98.20;;;;;;4976571;28;20657;-71
2022/11/17 13:04:10;;;;;;;1.50;1.00;;;13.20;98.20;;;;;;4988888;28;20717;-72
2022/11/17 13:06:37;;;;;;;1.60;1.10;;;13.20;98.20;;;;;;4974539;28;20489;-71
2022/11/17 13:09:06;;;;;;;1.60;1.00;;;13.20;98.20;;;;;;4981162;28;20530;-71
2022/11/17 13:11:33;;;;;;;1.57;1.00;;;13.20;98.20;;;;;;4969790;28;20493;-71
2022/11/17 13:14:08;;;;;;;1.50;1.00;;;13.20;98.20;;;;;;4973943;28;20491;-71
2022/11/17 13:16:37;;;;;;;1.57;1.00;;;13.10;98.20;;;;;;4975366;28;20492;-71
2022/11/17 13:19:24;;;;;;;1.53;1.00;;;13.10;98.20;;;;;;4985372;28;20473;-72
2022/11/17 13:21:59;;;;;;;1.60;1.10;;;13.10;98.20;;;;;;4977919;28;20492;-71
2022/11/17 13:24:31;;;;;;;1.53;1.00;;;13.10;98.20;;;;;;4980066;28;20460;-72
2022/11/17 13:27:00;;;;;;;1.50;1.00;;;13.10;98.20;;;;;;4983088;28;20549;-72
2022/11/17 13:29:27;;;;;;;1.53;1.00;;;13.10;98.20;;;;;;4994678;28;20469;-71
2022/11/17 13:32:15;;;;;;;1.57;1.00;;;13.10;98.20;;;;;;4991205;28;20506;-73
2022/11/17 13:34:47;;;;;;;1.60;1.10;;;13.10;98.20;;;;;;4992269;28;21024;-73
2022/11/17 13:37:16;;;;;;;1.50;1.00;;;13.10;98.20;;;;;;4975369;28;20485;-71
2022/11/17 13:39:58;;;;;;;1.60;1.10;;;13.10;98.20;;;;;;4975503;28;20853;-74
2022/11/17 13:42:26;;;;;;;1.53;1.00;;;13.10;98.20;;;;;;4978196;28;20472;-74
2022/11/17 13:44:55;;;;;;;1.53;1.07;;;13.20;98.20;;;;;;4982810;28;20453;-73